createdAt,value
2023-05-22T00:01:00.000Z,0
2023-05-22T00:02:17.000Z,0
2023-05-22T00:03:33.478Z,0
2023-05-22T00:04:49.000Z,0
2023-05-22T00:06:06.000Z,0
2023-05-22T00:07:22.000Z,0
2023-05-22T00:08:38.000Z,0
2023-05-22T00:09:54.000Z,0
2023-05-22T00:11:11.000Z,0
2023-05-22T00:12:27.000Z,0
2023-05-22T00:13:43.000Z,0
2023-05-22T00:15:00.000Z,0
2023-05-22T00:16:15.421Z,0
2023-05-22T00:17:31.000Z,0
2023-05-22T00:18:48.000Z,0
2023-05-22T00:20:04.000Z,0
2023-05-22T00:21:20.000Z,0
2023-05-22T00:22:36.000Z,0
2023-05-22T00:23:52.000Z,0
2023-05-22T00:25:08.000Z,0
2023-05-22T00:26:24.793Z,0
2023-05-22T00:27:41.100Z,0
2023-05-22T00:28:57.000Z,0
2023-05-22T00:30:13.000Z,0
2023-05-22T00:31:29.000Z,0
2023-05-22T00:32:46.000Z,0
2023-05-22T00:34:02.000Z,0
2023-05-22T00:35:18.000Z,0
2023-05-22T00:36:35.130Z,0
2023-05-22T00:37:51.422Z,0
2023-05-22T00:39:07.000Z,0
2023-05-22T00:40:23.000Z,0
2023-05-22T00:41:39.000Z,0
2023-05-22T00:42:55.000Z,0
2023-05-22T00:44:11.000Z,0
2023-05-22T00:45:28.000Z,0
2023-05-22T00:46:44.000Z,0
2023-05-22T00:48:00.000Z,0
2023-05-22T00:49:17.087Z,0
2023-05-22T00:50:33.000Z,0
2023-05-22T00:51:49.000Z,0
2023-05-22T00:53:05.000Z,0
2023-05-22T00:54:22.000Z,0
2023-05-22T00:55:38.000Z,0
2023-05-22T00:56:53.875Z,0
2023-05-22T00:58:10.000Z,0
2023-05-22T00:59:26.461Z,0
2023-05-22T01:00:42.730Z,0
2023-05-22T01:01:59.000Z,0
2023-05-22T01:03:15.000Z,0
2023-05-22T01:04:31.628Z,0
2023-05-22T01:05:47.000Z,0
2023-05-22T01:07:04.000Z,0
2023-05-22T01:08:20.000Z,0
2023-05-22T01:09:36.000Z,0
2023-05-22T01:10:53.000Z,0
2023-05-22T01:12:09.398Z,0
2023-05-22T01:13:24.000Z,0
2023-05-22T01:14:41.000Z,0
2023-05-22T01:15:57.000Z,0
2023-05-22T01:17:13.000Z,0
2023-05-22T01:18:29.000Z,0
2023-05-22T01:19:46.000Z,0
2023-05-22T01:21:02.475Z,0
2023-05-22T01:22:18.765Z,0
2023-05-22T01:23:35.000Z,0
2023-05-22T01:24:51.000Z,0
2023-05-22T01:26:07.000Z,0
2023-05-22T01:27:23.000Z,0
2023-05-22T01:28:40.000Z,0
2023-05-22T01:29:55.000Z,0
2023-05-22T01:31:11.000Z,0
2023-05-22T01:32:28.000Z,0
2023-05-22T01:33:44.000Z,0
2023-05-22T01:35:00.706Z,0
2023-05-22T01:36:17.000Z,0
2023-05-22T01:37:33.000Z,0
2023-05-22T01:38:49.000Z,0
2023-05-22T01:40:05.000Z,0
2023-05-22T01:41:22.000Z,0
2023-05-22T01:42:38.468Z,0
2023-05-22T01:43:54.000Z,0
2023-05-22T01:45:11.068Z,0
2023-05-22T01:46:26.000Z,0
2023-05-22T01:47:42.674Z,0
2023-05-22T01:48:58.000Z,0
2023-05-22T01:50:15.259Z,0
2023-05-22T01:51:31.000Z,0
2023-05-22T01:52:47.000Z,0
2023-05-22T01:54:04.000Z,0
2023-05-22T01:55:20.000Z,0
2023-05-22T01:56:36.000Z,0
2023-05-22T01:57:53.012Z,0
2023-05-22T01:59:09.000Z,0
2023-05-22T02:00:25.000Z,0
2023-05-22T02:01:41.000Z,0
2023-05-22T02:02:57.000Z,0
2023-05-22T02:04:13.000Z,0
2023-05-22T02:05:29.000Z,0
2023-05-22T02:06:46.065Z,0
2023-05-22T02:08:02.362Z,0
2023-05-22T02:09:18.000Z,0
2023-05-22T02:10:34.000Z,0
2023-05-22T02:11:51.000Z,0
2023-05-22T02:13:07.000Z,0
2023-05-22T02:14:23.000Z,0
2023-05-22T02:15:40.000Z,0
2023-05-22T02:16:56.427Z,0
2023-05-22T02:18:12.723Z,0
2023-05-22T02:19:28.000Z,0
2023-05-22T02:20:44.000Z,0
2023-05-22T02:22:00.000Z,0
2023-05-22T02:23:16.000Z,0
2023-05-22T02:24:33.000Z,0
2023-05-22T02:25:49.000Z,0
2023-05-22T02:27:05.795Z,0
2023-05-22T02:28:22.000Z,0
2023-05-22T02:29:38.000Z,0
2023-05-22T02:30:54.000Z,0
2023-05-22T02:32:10.000Z,0
2023-05-22T02:33:27.108Z,0
2023-05-22T02:34:43.000Z,0
2023-05-22T02:35:59.000Z,0
2023-05-22T02:37:14.000Z,0
2023-05-22T02:38:31.000Z,0
2023-05-22T02:39:47.000Z,0
2023-05-22T02:41:03.569Z,0
2023-05-22T02:42:19.808Z,0
2023-05-22T02:43:36.000Z,0
2023-05-22T02:44:52.000Z,0
2023-05-22T02:46:08.000Z,0
2023-05-22T02:47:24.000Z,0
2023-05-22T02:48:40.997Z,0
2023-05-22T02:49:57.000Z,0
2023-05-22T02:51:13.489Z,0
2023-05-22T02:52:29.722Z,0
2023-05-22T02:53:44.976Z,0
2023-05-22T02:55:01.203Z,0
2023-05-22T02:56:17.000Z,0
2023-05-22T02:57:33.701Z,0
2023-05-22T02:58:49.000Z,0
2023-05-22T03:00:06.000Z,0
2023-05-22T03:01:22.000Z,0
2023-05-22T03:02:38.000Z,0
2023-05-22T03:03:54.000Z,0
2023-05-22T03:06:27.372Z,0
2023-05-22T03:07:43.000Z,0
2023-05-22T03:08:59.000Z,0
2023-05-22T03:10:15.000Z,0
2023-05-22T03:11:31.000Z,5
2023-05-22T03:12:47.000Z,5
2023-05-22T03:14:03.000Z,5
2023-05-22T03:15:20.000Z,5
2023-05-22T03:16:36.306Z,5
2023-05-22T03:17:52.527Z,5
2023-05-22T03:19:08.000Z,5
2023-05-22T03:20:25.000Z,11
2023-05-22T03:21:41.000Z,11
2023-05-22T03:22:57.000Z,11
2023-05-22T03:24:13.000Z,11
2023-05-22T03:25:29.000Z,11
2023-05-22T03:26:45.000Z,16
2023-05-22T03:28:01.000Z,16
2023-05-22T03:29:17.717Z,16
2023-05-22T03:30:33.938Z,16
2023-05-22T03:31:50.190Z,22
2023-05-22T03:33:06.000Z,22
2023-05-22T03:34:22.000Z,22
2023-05-22T03:35:38.000Z,28
2023-05-22T03:36:55.000Z,28
2023-05-22T03:38:11.000Z,28
2023-05-22T03:39:27.616Z,33
2023-05-22T03:40:43.871Z,33
2023-05-22T03:42:00.095Z,33
2023-05-22T03:43:15.348Z,39
2023-05-22T03:44:31.593Z,39
2023-05-22T03:45:47.804Z,45
2023-05-22T03:47:04.000Z,45
2023-05-22T03:48:20.000Z,45
2023-05-22T03:49:36.000Z,50
2023-05-22T03:50:52.000Z,50
2023-05-22T03:52:09.034Z,56
2023-05-22T03:53:25.000Z,56
2023-05-22T03:54:41.000Z,56
2023-05-22T03:55:57.000Z,61
2023-05-22T03:57:14.000Z,61
2023-05-22T03:58:30.000Z,67
2023-05-22T03:59:45.000Z,67
2023-05-22T04:01:01.000Z,67
2023-05-22T04:02:17.954Z,67
2023-05-22T04:03:34.000Z,67
2023-05-22T04:04:50.446Z,67
2023-05-22T04:06:06.000Z,73
2023-05-22T04:07:22.000Z,73
2023-05-22T04:08:39.000Z,73
2023-05-22T04:09:55.000Z,78
2023-05-22T04:11:11.000Z,78
2023-05-22T04:12:27.000Z,78
2023-05-22T04:13:44.000Z,84
2023-05-22T04:15:00.358Z,84
2023-05-22T04:16:15.000Z,84
2023-05-22T04:17:31.000Z,90
2023-05-22T04:18:48.000Z,90
2023-05-22T04:20:04.000Z,95
2023-05-22T04:21:20.000Z,95
2023-05-22T04:22:36.000Z,95
2023-05-22T04:23:53.037Z,101
2023-05-22T04:25:09.282Z,101
2023-05-22T04:26:25.000Z,101
2023-05-22T04:27:41.000Z,106
2023-05-22T04:28:58.000Z,106
2023-05-22T04:30:14.247Z,112
2023-05-22T04:31:30.000Z,112
2023-05-22T04:32:45.000Z,112
2023-05-22T04:34:01.000Z,118
2023-05-22T04:35:18.000Z,118
2023-05-22T04:36:34.424Z,123
2023-05-22T04:37:50.674Z,123
2023-05-22T04:39:05.000Z,123
2023-05-22T04:40:22.187Z,123
2023-05-22T04:41:38.444Z,123
2023-05-22T04:42:54.000Z,129
2023-05-22T04:44:10.000Z,129
2023-05-22T04:45:27.000Z,129
2023-05-22T04:46:43.000Z,135
2023-05-22T04:47:59.000Z,135
2023-05-22T04:49:15.000Z,135
2023-05-22T04:50:32.000Z,140
2023-05-22T04:51:48.000Z,140
2023-05-22T04:53:04.000Z,140
2023-05-22T04:54:20.000Z,140
2023-05-22T04:55:36.000Z,146
2023-05-22T04:56:52.000Z,146
2023-05-22T04:58:08.000Z,146
2023-05-22T04:59:24.000Z,151
2023-05-22T05:00:41.050Z,151
2023-05-22T05:01:57.260Z,151
2023-05-22T05:03:13.000Z,157
2023-05-22T05:04:29.000Z,157
2023-05-22T05:05:46.000Z,157
2023-05-22T05:07:02.234Z,157
2023-05-22T05:08:18.000Z,157
2023-05-22T05:09:34.000Z,157
2023-05-22T05:10:50.960Z,163
2023-05-22T05:12:06.000Z,163
2023-05-22T05:13:22.000Z,163
2023-05-22T05:14:38.000Z,168
2023-05-22T05:15:54.942Z,168
2023-05-22T05:17:11.000Z,174
2023-05-22T05:18:27.000Z,174
2023-05-22T05:19:43.000Z,174
2023-05-22T05:20:59.882Z,174
2023-05-22T05:22:16.122Z,180
2023-05-22T05:23:32.375Z,180
2023-05-22T05:24:48.605Z,180
2023-05-22T05:26:04.000Z,185
2023-05-22T05:27:21.000Z,185
2023-05-22T05:28:36.000Z,185
2023-05-22T05:29:52.000Z,191
2023-05-22T05:31:08.000Z,191
2023-05-22T05:32:25.000Z,191
2023-05-22T05:33:41.000Z,196
2023-05-22T05:34:57.000Z,196
2023-05-22T05:36:13.000Z,196
2023-05-22T05:37:30.000Z,202
2023-05-22T05:38:46.000Z,202
2023-05-22T05:40:02.000Z,208
2023-05-22T05:41:18.000Z,208
2023-05-22T05:42:34.000Z,208
2023-05-22T05:43:51.000Z,213
2023-05-22T05:45:06.000Z,213
2023-05-22T05:46:22.000Z,219
2023-05-22T05:47:38.000Z,219
2023-05-22T05:48:55.000Z,219
2023-05-22T05:50:11.000Z,219
2023-05-22T05:51:27.000Z,225
2023-05-22T05:52:43.000Z,225
2023-05-22T05:54:00.000Z,225
2023-05-22T05:55:16.000Z,225
2023-05-22T05:56:32.000Z,230
2023-05-22T05:57:48.828Z,230
2023-05-22T05:59:05.000Z,230
2023-05-22T06:00:21.000Z,230
2023-05-22T06:01:36.000Z,230
2023-05-22T06:02:52.000Z,230
2023-05-22T06:04:09.061Z,230
2023-05-22T06:05:25.000Z,236
2023-05-22T06:06:41.000Z,236
2023-05-22T06:07:57.000Z,236
2023-05-22T06:09:14.026Z,241
2023-05-22T06:10:30.000Z,236
2023-05-22T06:11:46.000Z,236
2023-05-22T06:13:02.000Z,236
2023-05-22T06:14:18.000Z,236
2023-05-22T06:15:35.000Z,236
2023-05-22T06:16:51.000Z,236
2023-05-22T06:18:06.000Z,236
2023-05-22T06:19:22.951Z,236
2023-05-22T06:20:39.183Z,236
2023-05-22T06:21:55.000Z,241
2023-05-22T06:23:11.000Z,241
2023-05-22T06:24:27.000Z,241
2023-05-22T06:25:44.000Z,241
2023-05-22T06:27:00.000Z,241
2023-05-22T06:28:16.000Z,236
2023-05-22T06:29:32.000Z,236
2023-05-22T06:30:49.000Z,236
2023-05-22T06:32:05.339Z,236
2023-05-22T06:33:21.000Z,236
2023-05-22T06:34:36.840Z,236
2023-05-22T06:35:53.000Z,236
2023-05-22T06:37:09.000Z,236
2023-05-22T06:38:25.000Z,241
2023-05-22T06:39:41.000Z,241
2023-05-22T06:40:58.000Z,241
2023-05-22T06:42:14.267Z,241
2023-05-22T06:43:30.480Z,241
2023-05-22T06:44:46.000Z,241
2023-05-22T06:46:03.000Z,241
2023-05-22T06:47:19.000Z,241
2023-05-22T06:48:35.000Z,241
2023-05-22T06:49:51.000Z,247
2023-05-22T06:51:06.000Z,247
2023-05-22T06:52:23.000Z,247
2023-05-22T06:53:39.000Z,247
2023-05-22T06:54:55.682Z,247
2023-05-22T06:56:11.920Z,247
2023-05-22T06:57:28.000Z,247
2023-05-22T06:58:44.368Z,253
2023-05-22T07:00:00.000Z,253
2023-05-22T07:01:16.000Z,253
2023-05-22T07:02:33.000Z,253
2023-05-22T07:03:49.000Z,258
2023-05-22T07:05:05.000Z,258
2023-05-22T07:06:21.000Z,258
2023-05-22T07:07:37.000Z,258
2023-05-22T07:08:53.000Z,258
2023-05-22T07:10:09.000Z,264
2023-05-22T07:11:25.000Z,264
2023-05-22T07:12:42.000Z,264
2023-05-22T07:13:58.000Z,264
2023-05-22T07:15:14.000Z,264
2023-05-22T07:16:30.000Z,264
2023-05-22T07:17:47.016Z,264
2023-05-22T07:19:03.000Z,264
2023-05-22T07:20:19.484Z,264
2023-05-22T07:21:35.689Z,264
2023-05-22T07:22:51.000Z,264
2023-05-22T07:24:07.000Z,264
2023-05-22T07:25:23.000Z,264
2023-05-22T07:26:39.000Z,264
2023-05-22T07:27:55.000Z,264
2023-05-22T07:29:12.000Z,264
2023-05-22T07:30:28.000Z,264
2023-05-22T07:31:44.000Z,264
2023-05-22T07:33:00.000Z,264
2023-05-22T07:34:17.000Z,264
2023-05-22T07:35:33.000Z,264
2023-05-22T07:36:49.000Z,264
2023-05-22T07:38:05.000Z,264
2023-05-22T07:39:22.000Z,264
2023-05-22T07:40:37.000Z,258
2023-05-22T07:41:53.000Z,258
2023-05-22T07:43:09.000Z,258
2023-05-22T07:44:26.000Z,258
2023-05-22T07:45:42.000Z,258
2023-05-22T07:46:58.000Z,258
2023-05-22T07:48:14.000Z,264
2023-05-22T07:49:31.000Z,264
2023-05-22T07:50:47.000Z,264
2023-05-22T07:52:03.000Z,264
2023-05-22T07:53:19.000Z,264
2023-05-22T07:54:35.000Z,264
2023-05-22T07:55:52.000Z,264
2023-05-22T07:57:07.000Z,264
2023-05-22T07:58:23.000Z,264
2023-05-22T07:59:39.000Z,264
2023-05-22T08:00:56.000Z,264
2023-05-22T08:02:12.000Z,264
2023-05-22T08:03:28.000Z,264
2023-05-22T08:04:44.000Z,258
2023-05-22T08:06:01.150Z,270
2023-05-22T08:07:17.000Z,264
2023-05-22T08:08:33.000Z,264
2023-05-22T08:09:49.000Z,264
2023-05-22T08:11:06.000Z,264
2023-05-22T08:12:22.000Z,264
2023-05-22T08:13:37.598Z,264
2023-05-22T08:14:53.000Z,264
2023-05-22T08:16:10.000Z,264
2023-05-22T08:17:26.000Z,264
2023-05-22T08:18:42.000Z,264
2023-05-22T08:19:58.000Z,264
2023-05-22T08:21:15.034Z,264
2023-05-22T08:22:31.000Z,264
2023-05-22T08:23:47.000Z,270
2023-05-22T08:25:03.716Z,270
2023-05-22T08:26:19.000Z,264
2023-05-22T08:27:36.000Z,264
2023-05-22T08:28:52.000Z,264
2023-05-22T08:30:08.000Z,264
2023-05-22T08:31:25.000Z,264
2023-05-22T08:32:41.315Z,264
2023-05-22T08:33:57.000Z,264
2023-05-22T08:35:13.000Z,264
2023-05-22T08:36:30.000Z,264
2023-05-22T08:37:46.000Z,264
2023-05-22T08:39:02.000Z,264
2023-05-22T08:40:18.000Z,264
2023-05-22T08:41:34.000Z,264
2023-05-22T08:42:51.000Z,264
2023-05-22T08:44:07.000Z,264
2023-05-22T08:45:23.000Z,264
2023-05-22T08:46:38.000Z,264
2023-05-22T08:47:55.000Z,264
2023-05-22T08:49:11.000Z,264
2023-05-22T08:50:27.670Z,264
2023-05-22T08:51:43.000Z,264
2023-05-22T08:53:00.000Z,264
2023-05-22T08:54:15.000Z,270
2023-05-22T08:55:31.000Z,264
2023-05-22T08:56:47.000Z,264
2023-05-22T08:58:04.000Z,264
2023-05-22T08:59:20.000Z,264
2023-05-22T09:00:36.000Z,258
2023-05-22T09:01:52.000Z,258
2023-05-22T09:03:09.000Z,253
2023-05-22T09:04:25.000Z,253
2023-05-22T09:05:41.000Z,258
2023-05-22T09:06:57.000Z,258
2023-05-22T09:08:14.000Z,264
2023-05-22T09:09:30.000Z,264
2023-05-22T09:10:45.000Z,264
2023-05-22T09:12:01.000Z,258
2023-05-22T09:13:18.000Z,264
2023-05-22T09:14:34.000Z,270
2023-05-22T09:15:50.000Z,270
2023-05-22T09:17:06.000Z,275
2023-05-22T09:18:22.000Z,281
2023-05-22T09:19:39.000Z,286
2023-05-22T09:20:55.000Z,286
2023-05-22T09:22:11.666Z,286
2023-05-22T09:23:27.000Z,286
2023-05-22T09:24:44.000Z,286
2023-05-22T09:26:00.000Z,292
2023-05-22T09:27:15.000Z,292
2023-05-22T09:28:31.000Z,298
2023-05-22T09:29:48.000Z,298
2023-05-22T09:31:04.000Z,303
2023-05-22T09:32:20.000Z,303
2023-05-22T09:33:36.000Z,303
2023-05-22T09:34:53.000Z,309
2023-05-22T09:36:09.000Z,309
2023-05-22T09:37:25.000Z,315
2023-05-22T09:38:41.000Z,315
2023-05-22T09:39:58.000Z,315
2023-05-22T09:41:14.000Z,320
2023-05-22T09:42:30.000Z,320
2023-05-22T09:43:45.000Z,326
2023-05-22T09:45:02.000Z,326
2023-05-22T09:46:18.000Z,331
2023-05-22T09:47:34.000Z,343
2023-05-22T09:48:50.000Z,337
2023-05-22T09:50:07.000Z,337
2023-05-22T09:51:23.000Z,343
2023-05-22T09:52:39.000Z,343
2023-05-22T09:53:55.000Z,343
2023-05-22T09:55:11.000Z,343
2023-05-22T09:56:28.000Z,343
2023-05-22T09:57:44.433Z,343
2023-05-22T09:59:00.000Z,343
2023-05-22T10:00:15.000Z,348
2023-05-22T10:01:32.000Z,348
2023-05-22T10:02:48.000Z,348
2023-05-22T10:04:04.000Z,348
2023-05-22T10:05:20.000Z,348
2023-05-22T10:06:37.000Z,348
2023-05-22T10:07:53.000Z,348
2023-05-22T10:09:09.000Z,348
2023-05-22T10:10:25.000Z,343
2023-05-22T10:11:42.000Z,343
2023-05-22T10:12:58.000Z,343
2023-05-22T10:14:14.000Z,337
2023-05-22T10:15:30.000Z,337
2023-05-22T10:16:46.000Z,337
2023-05-22T10:18:02.304Z,331
2023-05-22T10:19:18.000Z,331
2023-05-22T10:20:34.000Z,331
2023-05-22T10:21:51.000Z,331
2023-05-22T10:23:07.000Z,326
2023-05-22T10:24:23.000Z,326
2023-05-22T10:25:39.000Z,320
2023-05-22T10:26:55.000Z,320
2023-05-22T10:28:12.218Z,320
2023-05-22T10:29:28.461Z,320
2023-05-22T10:30:44.000Z,320
2023-05-22T10:32:00.000Z,320
2023-05-22T10:33:16.000Z,320
2023-05-22T10:34:32.000Z,320
2023-05-22T10:35:48.667Z,320
2023-05-22T10:37:04.000Z,320
2023-05-22T10:38:21.000Z,326
2023-05-22T10:39:37.378Z,326
2023-05-22T10:40:53.615Z,326
2023-05-22T10:42:09.000Z,326
2023-05-22T10:43:26.000Z,326
2023-05-22T10:44:42.000Z,331
2023-05-22T10:45:58.000Z,331
2023-05-22T10:47:14.000Z,337
2023-05-22T10:48:31.000Z,337
2023-05-22T10:49:46.000Z,337
2023-05-22T10:51:02.000Z,337
2023-05-22T10:52:18.000Z,343
2023-05-22T10:53:35.000Z,343
2023-05-22T10:54:51.000Z,343
2023-05-22T10:56:07.000Z,343
2023-05-22T10:57:23.000Z,343
2023-05-22T10:58:39.000Z,343
2023-05-22T10:59:56.000Z,343
2023-05-22T11:01:12.000Z,343
2023-05-22T11:02:28.000Z,343
2023-05-22T11:03:44.000Z,337
2023-05-22T11:05:01.000Z,337
2023-05-22T11:06:16.456Z,337
2023-05-22T11:07:32.000Z,331
2023-05-22T11:08:48.000Z,331
2023-05-22T11:10:05.117Z,331
2023-05-22T11:11:21.000Z,326
2023-05-22T11:12:37.000Z,326
2023-05-22T11:13:53.887Z,326
2023-05-22T11:15:10.000Z,320
2023-05-22T11:16:26.353Z,320
2023-05-22T11:17:42.000Z,326
2023-05-22T11:18:58.000Z,331
2023-05-22T11:20:15.000Z,315
2023-05-22T11:21:31.000Z,320
2023-05-22T11:22:46.000Z,320
2023-05-22T11:24:02.000Z,315
2023-05-22T11:25:19.000Z,315
2023-05-22T11:26:35.291Z,315
2023-05-22T11:27:51.525Z,315
2023-05-22T11:29:07.780Z,315
2023-05-22T11:30:24.000Z,320
2023-05-22T11:31:40.246Z,320
2023-05-22T11:32:56.000Z,320
2023-05-22T11:34:12.725Z,320
2023-05-22T11:35:28.000Z,320
2023-05-22T11:36:45.000Z,320
2023-05-22T11:38:01.000Z,331
2023-05-22T11:39:16.708Z,326
2023-05-22T11:40:32.000Z,326
2023-05-22T11:41:49.000Z,326
2023-05-22T11:43:05.000Z,331
2023-05-22T11:44:21.000Z,331
2023-05-22T11:45:37.000Z,331
2023-05-22T11:46:54.000Z,331
2023-05-22T11:48:10.000Z,331
2023-05-22T11:49:26.000Z,331
2023-05-22T11:50:42.000Z,331
2023-05-22T11:51:59.000Z,331
2023-05-22T11:53:15.000Z,331
2023-05-22T11:54:31.000Z,331
2023-05-22T11:55:46.000Z,331
2023-05-22T11:57:03.000Z,326
2023-05-22T11:58:19.000Z,326
2023-05-22T11:59:35.566Z,326
2023-05-22T12:00:51.000Z,320
2023-05-22T12:02:08.029Z,320
2023-05-22T12:03:24.000Z,320
2023-05-22T12:04:40.000Z,320
2023-05-22T12:05:56.000Z,320
2023-05-22T12:07:12.000Z,315
2023-05-22T12:08:29.000Z,315
2023-05-22T12:09:45.461Z,320
2023-05-22T12:11:01.000Z,315
2023-05-22T12:12:16.000Z,315
2023-05-22T12:13:33.000Z,315
2023-05-22T12:14:49.000Z,315
2023-05-22T12:16:05.000Z,315
2023-05-22T12:17:21.000Z,315
2023-05-22T12:18:38.158Z,315
2023-05-22T12:19:54.000Z,315
2023-05-22T12:21:10.000Z,315
2023-05-22T12:22:26.882Z,309
2023-05-22T12:23:43.000Z,315
2023-05-22T12:24:59.000Z,320
2023-05-22T12:26:15.000Z,326
2023-05-22T12:27:31.835Z,326
2023-05-22T12:28:47.000Z,331
2023-05-22T12:30:03.000Z,331
2023-05-22T12:31:19.000Z,331
2023-05-22T12:32:35.825Z,337
2023-05-22T12:33:52.000Z,337
2023-05-22T12:35:08.000Z,337
2023-05-22T12:36:24.000Z,337
2023-05-22T12:37:40.000Z,337
2023-05-22T12:38:57.000Z,343
2023-05-22T12:40:13.243Z,343
2023-05-22T12:41:29.000Z,343
2023-05-22T12:42:45.000Z,343
2023-05-22T12:44:01.000Z,343
2023-05-22T12:45:18.214Z,343
2023-05-22T12:46:33.000Z,343
2023-05-22T12:47:49.654Z,343
2023-05-22T12:49:05.937Z,343
2023-05-22T12:50:22.000Z,343
2023-05-22T12:51:38.421Z,343
2023-05-22T12:52:54.000Z,343
2023-05-22T12:54:10.000Z,348
2023-05-22T12:55:27.000Z,348
2023-05-22T12:56:43.000Z,354
2023-05-22T12:57:59.000Z,354
2023-05-22T12:59:15.000Z,354
2023-05-22T13:00:32.105Z,360
2023-05-22T13:01:48.000Z,360
2023-05-22T13:03:03.000Z,360
2023-05-22T13:04:19.000Z,365
2023-05-22T13:05:36.000Z,365
2023-05-22T13:06:52.000Z,365
2023-05-22T13:08:08.564Z,365
2023-05-22T13:09:23.000Z,376
2023-05-22T13:10:40.059Z,371
2023-05-22T13:11:56.000Z,371
2023-05-22T13:13:12.000Z,371
2023-05-22T13:14:28.000Z,376
2023-05-22T13:15:45.000Z,376
2023-05-22T13:17:01.000Z,376
2023-05-22T13:18:17.000Z,376
2023-05-22T13:19:33.000Z,371
2023-05-22T13:20:49.979Z,371
2023-05-22T13:22:06.000Z,382
2023-05-22T13:23:22.000Z,388
2023-05-22T13:24:38.000Z,388
2023-05-22T13:25:53.950Z,388
2023-05-22T13:27:10.000Z,388
2023-05-22T13:28:26.000Z,393
2023-05-22T13:29:42.000Z,388
2023-05-22T13:30:58.920Z,393
2023-05-22T13:32:15.141Z,393
2023-05-22T13:33:31.394Z,393
2023-05-22T13:34:47.000Z,393
2023-05-22T13:36:03.000Z,393
2023-05-22T13:37:20.000Z,393
2023-05-22T13:38:36.000Z,393
2023-05-22T13:39:52.000Z,388
2023-05-22T13:41:08.832Z,388
2023-05-22T13:42:24.000Z,388
2023-05-22T13:43:40.329Z,405
2023-05-22T13:44:56.000Z,416
2023-05-22T13:46:12.807Z,416
2023-05-22T13:47:29.000Z,421
2023-05-22T13:48:45.000Z,421
2023-05-22T13:50:01.000Z,421
2023-05-22T13:51:17.000Z,421
2023-05-22T13:52:34.012Z,433
2023-05-22T13:53:50.207Z,450
2023-05-22T13:55:06.000Z,455
2023-05-22T13:56:22.000Z,461
2023-05-22T13:57:38.000Z,461
2023-05-22T13:58:55.000Z,461
2023-05-22T14:00:11.000Z,461
2023-05-22T14:01:27.000Z,466
2023-05-22T14:02:44.000Z,472
2023-05-22T14:04:00.293Z,472
2023-05-22T14:05:16.000Z,478
2023-05-22T14:06:32.787Z,483
2023-05-22T14:07:49.000Z,483
2023-05-22T14:09:05.000Z,489
2023-05-22T14:10:21.000Z,489
2023-05-22T14:11:37.000Z,495
2023-05-22T14:12:53.000Z,500
2023-05-22T14:14:10.000Z,506
2023-05-22T14:15:26.458Z,506
2023-05-22T14:16:42.822Z,500
2023-05-22T14:17:59.000Z,506
2023-05-22T14:19:15.000Z,500
2023-05-22T14:20:31.000Z,495
2023-05-22T14:21:47.000Z,500
2023-05-22T14:23:04.000Z,506
2023-05-22T14:24:20.000Z,511
2023-05-22T14:25:36.000Z,517
2023-05-22T14:26:52.739Z,523
2023-05-22T14:28:08.000Z,534
2023-05-22T14:29:25.218Z,534
2023-05-22T14:30:41.000Z,551
2023-05-22T14:31:57.000Z,551
2023-05-22T14:33:14.000Z,556
2023-05-22T14:34:30.301Z,562
2023-05-22T14:35:46.000Z,562
2023-05-22T14:37:02.000Z,562
2023-05-22T14:38:19.014Z,562
2023-05-22T14:39:35.252Z,562
2023-05-22T14:40:51.000Z,568
2023-05-22T14:42:07.000Z,568
2023-05-22T14:43:23.000Z,556
2023-05-22T14:44:40.205Z,562
2023-05-22T14:45:56.000Z,562
2023-05-22T14:47:12.000Z,568
2023-05-22T14:48:28.000Z,568
2023-05-22T14:49:45.177Z,568
2023-05-22T14:51:00.416Z,562
2023-05-22T14:52:16.000Z,556
2023-05-22T14:53:32.000Z,556
2023-05-22T14:54:49.000Z,551
2023-05-22T14:56:05.000Z,540
2023-05-22T14:57:21.000Z,551
2023-05-22T14:58:37.000Z,579
2023-05-22T14:59:54.000Z,590
2023-05-22T15:01:10.288Z,596
2023-05-22T15:02:26.000Z,596
2023-05-22T15:03:42.000Z,596
2023-05-22T15:04:59.000Z,590
2023-05-22T15:06:15.000Z,579
2023-05-22T15:07:30.000Z,573
2023-05-22T15:08:46.000Z,562
2023-05-22T15:10:03.000Z,556
2023-05-22T15:11:19.226Z,556
2023-05-22T15:12:35.459Z,562
2023-05-22T15:13:51.000Z,568
2023-05-22T15:15:07.000Z,596
2023-05-22T15:16:24.000Z,613
2023-05-22T15:17:40.000Z,624
2023-05-22T15:18:56.000Z,635
2023-05-22T15:20:12.903Z,641
2023-05-22T15:21:29.000Z,630
2023-05-22T15:22:45.429Z,635
2023-05-22T15:24:01.665Z,630
2023-05-22T15:25:18.000Z,641
2023-05-22T15:26:34.000Z,641
2023-05-22T15:27:50.000Z,630
2023-05-22T15:29:06.000Z,618
2023-05-22T15:30:22.000Z,601
2023-05-22T15:31:39.000Z,607
2023-05-22T15:32:55.475Z,635
2023-05-22T15:34:11.000Z,697
2023-05-22T15:35:27.947Z,1125
2023-05-22T15:36:44.000Z,1248
2023-05-22T15:38:00.000Z,1158
2023-05-22T15:39:16.000Z,1203
2023-05-22T15:40:32.000Z,1299
2023-05-22T15:41:48.000Z,1271
2023-05-22T15:43:04.000Z,1378
2023-05-22T15:44:20.000Z,1136
2023-05-22T15:45:36.871Z,1158
2023-05-22T15:46:53.000Z,1198
2023-05-22T15:48:09.000Z,1338
2023-05-22T15:49:25.000Z,1580
2023-05-22T15:50:41.839Z,1518
2023-05-22T15:51:58.000Z,1631
2023-05-22T15:53:14.000Z,1552
2023-05-22T15:54:30.000Z,1456
2023-05-22T15:55:46.000Z,1518
2023-05-22T15:57:03.000Z,1749
2023-05-22T15:58:18.000Z,1833
2023-05-22T15:59:34.000Z,1749
2023-05-22T16:00:50.000Z,1451
2023-05-22T16:02:07.000Z,1350
2023-05-22T16:03:23.000Z,1136
2023-05-22T16:04:39.000Z,1080
2023-05-22T16:05:55.738Z,1113
2023-05-22T16:07:11.000Z,1136
2023-05-22T16:08:28.000Z,1102
2023-05-22T16:09:44.000Z,1023
2023-05-22T16:11:00.000Z,793
2023-05-22T16:12:16.000Z,877
2023-05-22T16:13:33.000Z,798
2023-05-22T16:14:48.000Z,748
2023-05-22T16:16:04.000Z,720
2023-05-22T16:17:20.921Z,680
2023-05-22T16:18:37.154Z,720
2023-05-22T16:19:53.000Z,731
2023-05-22T16:21:09.000Z,765
2023-05-22T16:22:25.000Z,714
2023-05-22T16:23:42.000Z,680
2023-05-22T16:24:58.000Z,748
2023-05-22T16:26:14.000Z,725
2023-05-22T16:27:30.839Z,635
2023-05-22T16:28:47.092Z,630
2023-05-22T16:30:03.000Z,596
2023-05-22T16:31:18.000Z,590
2023-05-22T16:32:34.000Z,607
2023-05-22T16:33:51.000Z,607
2023-05-22T16:35:07.000Z,635
2023-05-22T16:36:23.000Z,635
2023-05-22T16:37:39.000Z,613
2023-05-22T16:38:56.010Z,675
2023-05-22T16:40:12.247Z,933
2023-05-22T16:41:28.000Z,933
2023-05-22T16:42:44.000Z,990
2023-05-22T16:44:00.967Z,1158
2023-05-22T16:45:17.000Z,1136
2023-05-22T16:46:33.000Z,1125
2023-05-22T16:47:48.722Z,1203
2023-05-22T16:49:04.000Z,1181
2023-05-22T16:50:21.195Z,1153
2023-05-22T16:51:37.437Z,1215
2023-05-22T16:52:53.000Z,1215
2023-05-22T16:54:09.000Z,1321
2023-05-22T16:55:26.000Z,1338
2023-05-22T16:56:42.000Z,1293
2023-05-22T16:57:58.000Z,1276
2023-05-22T16:59:14.000Z,1310
2023-05-22T17:00:31.059Z,1260
2023-05-22T17:01:47.355Z,1006
2023-05-22T17:03:03.000Z,877
2023-05-22T17:04:18.000Z,849
2023-05-22T17:05:35.000Z,894
2023-05-22T17:06:51.000Z,821
2023-05-22T17:08:07.000Z,905
2023-05-22T17:09:23.000Z,900
2023-05-22T17:10:40.000Z,990
2023-05-22T17:11:56.226Z,956
2023-05-22T17:13:12.000Z,928
2023-05-22T17:14:28.000Z,911
2023-05-22T17:15:44.000Z,950
2023-05-22T17:17:01.000Z,967
2023-05-22T17:18:17.000Z,838
2023-05-22T17:19:33.000Z,658
2023-05-22T17:20:48.000Z,686
2023-05-22T17:22:05.000Z,810
2023-05-22T17:23:21.000Z,967
2023-05-22T17:24:36.738Z,950
2023-05-22T17:25:52.961Z,900
2023-05-22T17:27:09.000Z,888
2023-05-22T17:28:25.000Z,905
2023-05-22T17:29:41.000Z,922
2023-05-22T17:30:57.000Z,855
2023-05-22T17:32:14.000Z,759
2023-05-22T17:33:30.000Z,720
2023-05-22T17:34:46.649Z,703
2023-05-22T17:36:02.000Z,461
2023-05-22T17:37:19.000Z,382
2023-05-22T17:38:35.000Z,365
2023-05-22T17:39:51.000Z,348
2023-05-22T17:41:06.000Z,354
2023-05-22T17:42:23.000Z,337
2023-05-22T17:43:39.000Z,331
2023-05-22T17:44:55.582Z,326